createdAt,value
2023-04-27T00:01:55.038Z,10.50
2023-04-27T00:04:22.263Z,9.30
2023-04-27T00:06:49.355Z,10.15
2023-04-27T00:09:16.506Z,9.57
2023-04-27T00:11:43.563Z,11.73
2023-04-27T00:14:10.509Z,8.60
2023-04-27T00:16:37.452Z,10.18
2023-04-27T00:19:04.546Z,8.18
2023-04-27T00:21:32.221Z,8.55
2023-04-27T00:23:59.131Z,8.00
2023-04-27T00:26:26.980Z,9.23
2023-04-27T00:28:53.889Z,10.70
2023-04-27T00:31:21.054Z,6.57
2023-04-27T00:33:47.942Z,9.63
2023-04-27T00:38:41.487Z,11.20
2023-04-27T00:41:08.516Z,6.22
2023-04-27T00:43:43.800Z,7.97
2023-04-27T00:46:12.509Z,6.53
2023-04-27T00:48:39.742Z,7.28
2023-04-27T00:51:06.813Z,8.35
2023-04-27T00:53:34.538Z,8.20
2023-04-27T00:56:01.441Z,7.12
2023-04-27T00:58:28.314Z,8.02
2023-04-27T01:00:55.445Z,7.80
2023-04-27T01:03:23.160Z,7.12
2023-04-27T01:05:50.136Z,6.95
2023-04-27T01:08:16.988Z,8.80
2023-04-27T01:13:11.176Z,8.02
2023-04-27T01:15:38.365Z,10.38
2023-04-27T01:18:05.457Z,9.38
2023-04-27T01:20:32.572Z,7.18
2023-04-27T01:22:59.997Z,6.57
2023-04-27T01:25:27.426Z,10.30
2023-04-27T01:27:54.580Z,7.70
2023-04-27T01:30:22.828Z,7.95
2023-04-27T01:32:50.427Z,7.03
2023-04-27T01:35:17.546Z,7.35
2023-04-27T01:37:44.513Z,7.32
2023-04-27T01:40:13.260Z,8.65
2023-04-27T01:42:40.167Z,9.10
2023-04-27T01:45:07.582Z,8.02
2023-04-27T01:47:34.478Z,8.02
2023-04-27T01:52:28.457Z,8.80
2023-04-27T01:54:55.335Z,8.23
2023-04-27T01:57:22.202Z,6.78
2023-04-27T02:02:15.788Z,9.77
2023-04-27T02:04:43.651Z,6.57
2023-04-27T02:07:11.121Z,7.62
2023-04-27T02:09:38.275Z,11.70
2023-04-27T02:12:05.420Z,7.72
2023-04-27T02:14:32.312Z,7.37
2023-04-27T02:16:59.206Z,7.75
2023-04-27T02:19:26.349Z,8.77
2023-04-27T02:21:53.355Z,8.80
2023-04-27T02:24:20.261Z,6.90
2023-04-27T02:29:14.019Z,6.75
2023-04-27T02:31:41.584Z,9.18
2023-04-27T02:34:08.499Z,7.03
2023-04-27T02:39:02.113Z,8.45
2023-04-27T02:41:32.384Z,6.68
2023-04-27T02:43:59.261Z,7.90
2023-04-27T02:46:27.313Z,8.70
2023-04-27T02:48:54.530Z,6.97
2023-04-27T02:51:21.418Z,9.35
2023-04-27T02:53:48.406Z,7.37
2023-04-27T02:56:15.248Z,7.35
2023-04-27T03:01:09.872Z,8.68
2023-04-27T03:03:37.094Z,8.20
2023-04-27T03:06:04.340Z,7.82
2023-04-27T03:08:31.247Z,7.37
2023-04-27T03:10:58.102Z,9.68
2023-04-27T03:15:51.646Z,6.65
2023-04-27T03:20:45.171Z,10.05
2023-04-27T03:25:39.164Z,7.37
2023-04-27T03:28:06.855Z,10.88
2023-04-27T03:30:33.731Z,8.98
2023-04-27T03:35:27.710Z,7.37
2023-04-27T03:37:54.675Z,10.70
2023-04-27T03:40:21.769Z,8.35
2023-04-27T03:42:48.616Z,11.10
2023-04-27T03:47:43.683Z,9.13
2023-04-27T03:50:10.679Z,9.32
2023-04-27T03:52:37.611Z,9.45
2023-04-27T03:55:05.561Z,8.30
2023-04-27T03:57:32.444Z,8.07
2023-04-27T04:02:26.144Z,7.82
2023-04-27T04:04:53.168Z,8.80
2023-04-27T04:07:20.959Z,11.38
2023-04-27T04:09:47.878Z,13.02
2023-04-27T04:12:14.716Z,9.30
2023-04-27T04:17:11.055Z,10.18
2023-04-27T04:19:38.017Z,9.93
2023-04-27T04:22:05.111Z,9.52
2023-04-27T04:24:32.051Z,10.57
2023-04-27T04:26:58.994Z,8.02
2023-04-27T04:29:25.922Z,7.90
2023-04-27T04:31:52.958Z,8.35
2023-04-27T04:34:20.234Z,10.15
2023-04-27T04:36:47.121Z,9.02
2023-04-27T04:39:14.205Z,10.05
2023-04-27T04:41:41.197Z,9.27
2023-04-27T04:44:08.118Z,8.73
2023-04-27T04:46:35.253Z,9.52
2023-04-27T04:49:02.762Z,9.30
2023-04-27T04:51:29.680Z,8.75
2023-04-27T04:53:56.820Z,11.10
2023-04-27T04:56:23.898Z,9.10
2023-04-27T04:58:50.779Z,8.65
2023-04-27T05:01:17.821Z,10.65
2023-04-27T05:03:44.800Z,7.72
2023-04-27T05:06:12.033Z,7.55
2023-04-27T05:08:39.005Z,15.18
2023-04-27T05:11:05.899Z,16.23
2023-04-27T05:13:32.740Z,12.77
2023-04-27T05:15:59.687Z,10.25
2023-04-27T05:18:26.603Z,9.43
2023-04-27T05:20:53.442Z,14.52
2023-04-27T05:23:20.301Z,9.38
2023-04-27T05:25:47.188Z,14.68
2023-04-27T05:28:14.110Z,13.20
2023-04-27T05:30:41.020Z,13.48
2023-04-27T05:33:07.957Z,13.35
2023-04-27T05:35:35.085Z,11.70
2023-04-27T05:38:02.264Z,14.27
2023-04-27T05:40:29.528Z,9.57
2023-04-27T05:42:56.663Z,11.12
2023-04-27T05:45:23.632Z,10.93
2023-04-27T05:47:50.652Z,11.48
2023-04-27T05:50:17.612Z,7.20
2023-04-27T05:52:44.473Z,8.88
2023-04-27T05:55:11.362Z,9.82
2023-04-27T05:57:38.287Z,8.05
2023-04-27T06:00:10.525Z,11.05
2023-04-27T06:02:37.526Z,10.18
2023-04-27T06:05:04.797Z,9.52
2023-04-27T06:07:31.909Z,6.55
2023-04-27T06:09:58.981Z,9.57
2023-04-27T06:12:25.897Z,6.80
2023-04-27T06:14:52.759Z,8.55
2023-04-27T06:17:19.625Z,8.90
2023-04-27T06:19:46.608Z,7.40
2023-04-27T06:22:13.442Z,6.70
2023-04-27T06:24:40.278Z,6.65
2023-04-27T06:27:07.245Z,7.47
2023-04-27T06:29:34.147Z,8.30
2023-04-27T06:32:01.952Z,6.80
2023-04-27T06:34:29.131Z,8.77
2023-04-27T06:36:56.180Z,8.52
2023-04-27T06:39:23.172Z,8.18
2023-04-27T06:41:50.054Z,8.30
2023-04-27T06:44:16.957Z,7.62
2023-04-27T06:46:43.856Z,10.38
2023-04-27T06:49:11.080Z,4.78
2023-04-27T06:51:38.012Z,6.68
2023-04-27T06:54:05.081Z,8.80
2023-04-27T06:56:32.030Z,11.20
2023-04-27T06:58:59.974Z,9.23
2023-04-27T07:01:26.882Z,5.78
2023-04-27T07:03:53.980Z,8.20
2023-04-27T07:06:22.384Z,8.65
2023-04-27T07:08:49.269Z,6.50
2023-04-27T07:11:16.648Z,7.95
2023-04-27T07:13:43.902Z,6.07
2023-04-27T07:16:10.879Z,7.60
2023-04-27T07:18:37.772Z,5.97
2023-04-27T07:21:04.677Z,6.22
2023-04-27T07:23:32.075Z,6.18
2023-04-27T07:25:59.386Z,8.90
2023-04-27T07:28:26.305Z,4.97
2023-04-27T07:30:53.211Z,6.43
2023-04-27T07:33:20.104Z,10.07
2023-04-27T07:35:47.008Z,8.73
2023-04-27T07:38:13.887Z,5.90
2023-04-27T07:40:42.100Z,5.03
2023-04-27T07:43:10.418Z,6.93
2023-04-27T07:45:39.499Z,6.50
2023-04-27T07:48:06.688Z,6.95
2023-04-27T07:50:33.699Z,6.90
2023-04-27T07:53:00.575Z,6.47
2023-04-27T07:55:27.616Z,4.90
2023-04-27T07:57:55.327Z,4.93
2023-04-27T08:00:23.178Z,7.10
2023-04-27T08:02:51.013Z,6.60
2023-04-27T08:05:18.408Z,7.12
2023-04-27T08:07:46.076Z,5.25
2023-04-27T08:10:13.381Z,4.00
2023-04-27T08:12:40.306Z,6.12
2023-04-27T08:15:07.875Z,5.43
2023-04-27T08:17:35.271Z,4.95
2023-04-27T08:20:02.227Z,6.55
2023-04-27T08:22:29.156Z,5.55
2023-04-27T08:24:56.036Z,7.60
2023-04-27T08:27:22.891Z,6.87
2023-04-27T08:29:49.804Z,7.62
2023-04-27T08:32:16.859Z,6.57
2023-04-27T08:34:45.103Z,6.68
2023-04-27T08:37:12.078Z,10.48
2023-04-27T08:39:39.051Z,6.90
2023-04-27T08:42:12.763Z,4.68
2023-04-27T08:44:44.016Z,6.35
2023-04-27T08:47:11.388Z,6.25
2023-04-27T08:49:44.475Z,6.60
2023-04-27T08:52:14.633Z,5.45
2023-04-27T08:54:41.743Z,6.80
2023-04-27T08:57:13.150Z,8.88
2023-04-27T08:59:45.448Z,6.18
2023-04-27T09:02:21.827Z,6.72
2023-04-27T09:04:48.943Z,6.47
2023-04-27T09:07:17.634Z,6.15
2023-04-27T09:09:45.673Z,9.25
2023-04-27T09:12:22.065Z,7.00
2023-04-27T09:14:58.254Z,5.35
2023-04-27T09:17:28.016Z,7.60
2023-04-27T09:20:13.586Z,6.53
2023-04-27T09:22:45.774Z,7.03
2023-04-27T09:25:30.219Z,8.00
2023-04-27T09:27:58.506Z,7.25
2023-04-27T09:30:26.581Z,5.93
2023-04-27T09:32:58.060Z,9.90
2023-04-27T09:35:30.085Z,6.78
2023-04-27T09:37:57.001Z,6.75
2023-04-27T09:40:30.844Z,7.65
2023-04-27T09:43:01.301Z,5.75
2023-04-27T09:45:28.398Z,7.32
2023-04-27T09:47:55.410Z,7.87
2023-04-27T09:50:22.342Z,4.78
2023-04-27T09:52:49.383Z,6.47
2023-04-27T09:55:27.803Z,4.68
2023-04-27T09:58:28.634Z,7.22
2023-04-27T10:01:20.332Z,5.00
2023-04-27T10:04:06.146Z,6.70
2023-04-27T10:07:01.930Z,6.70
2023-04-27T10:09:36.134Z,7.65
2023-04-27T10:12:19.665Z,6.57
2023-04-27T10:14:51.512Z,8.02
2023-04-27T10:17:19.027Z,8.05
2023-04-27T10:20:18.142Z,8.10
2023-04-27T10:22:46.712Z,5.07
2023-04-27T10:25:19.847Z,7.20
2023-04-27T10:27:57.024Z,6.55
2023-04-27T10:32:55.191Z,5.85
2023-04-27T10:35:23.459Z,7.72
2023-04-27T10:37:52.201Z,6.32
2023-04-27T10:40:19.342Z,5.70
2023-04-27T10:42:49.630Z,9.52
2023-04-27T10:45:30.210Z,6.87
2023-04-27T10:48:00.606Z,7.00
2023-04-27T10:50:28.058Z,12.57
2023-04-27T10:52:54.954Z,9.43
2023-04-27T10:55:23.253Z,8.98
2023-04-27T10:57:54.293Z,8.35
2023-04-27T11:00:26.907Z,6.87
2023-04-27T11:02:55.213Z,5.80
2023-04-27T11:05:25.388Z,6.35
2023-04-27T11:07:53.121Z,7.62
2023-04-27T11:10:20.524Z,7.37
2023-04-27T11:12:47.537Z,8.70
2023-04-27T11:15:14.487Z,6.50
2023-04-27T11:17:41.893Z,7.72
2023-04-27T11:20:09.891Z,5.78
2023-04-27T11:22:46.504Z,9.05
2023-04-27T11:25:13.394Z,6.00
2023-04-27T11:27:42.011Z,7.80
2023-04-27T11:30:23.212Z,10.48
2023-04-27T11:32:50.978Z,14.13
2023-04-27T11:35:21.286Z,7.90
2023-04-27T11:37:58.432Z,8.27
2023-04-27T11:43:04.340Z,6.85
2023-04-27T11:45:31.294Z,7.18
2023-04-27T11:47:59.238Z,8.18
2023-04-27T11:50:26.855Z,8.73
2023-04-27T11:52:53.753Z,9.80
2023-04-27T11:55:22.263Z,7.95
2023-04-27T11:57:49.357Z,8.45
2023-04-27T12:00:16.780Z,9.55
2023-04-27T12:02:44.414Z,10.68
2023-04-27T12:05:13.454Z,6.85
2023-04-27T12:07:41.437Z,5.40
2023-04-27T12:10:09.187Z,10.32
2023-04-27T12:12:36.402Z,6.43
2023-04-27T12:15:03.750Z,7.82
2023-04-27T12:17:30.669Z,6.87
2023-04-27T12:19:57.601Z,6.82
2023-04-27T12:22:24.512Z,7.65
2023-04-27T12:24:51.709Z,8.50
2023-04-27T12:27:18.581Z,6.25
2023-04-27T12:29:45.573Z,6.93
2023-04-27T12:32:12.510Z,6.28
2023-04-27T12:34:39.685Z,8.65
2023-04-27T12:37:07.204Z,6.10
2023-04-27T12:39:34.483Z,10.60
2023-04-27T12:42:02.454Z,6.60
2023-04-27T12:44:29.660Z,6.82
2023-04-27T12:46:56.885Z,6.75
2023-04-27T12:49:23.767Z,9.25
2023-04-27T12:51:52.148Z,8.20
2023-04-27T12:54:19.076Z,8.70
2023-04-27T12:56:46.051Z,7.93
2023-04-27T12:59:14.001Z,8.18
2023-04-27T13:01:40.938Z,11.27
2023-04-27T13:04:08.147Z,8.00
2023-04-27T13:06:35.260Z,8.07
2023-04-27T13:09:08.888Z,8.65
2023-04-27T13:11:35.835Z,8.57
2023-04-27T13:14:02.717Z,9.25
2023-04-27T13:16:29.643Z,5.82
2023-04-27T13:18:56.736Z,9.25
2023-04-27T13:21:23.679Z,8.32
2023-04-27T13:23:51.341Z,6.78
2023-04-27T13:26:18.272Z,8.30
2023-04-27T13:28:45.136Z,6.43
2023-04-27T13:31:12.072Z,9.75
2023-04-27T13:33:43.711Z,7.72
2023-04-27T13:36:12.197Z,9.20
2023-04-27T13:38:39.489Z,7.80
2023-04-27T13:41:06.904Z,5.93
2023-04-27T13:43:33.911Z,10.85
2023-04-27T13:46:02.623Z,8.30
2023-04-27T13:48:30.603Z,7.72
2023-04-27T13:50:58.034Z,9.43
2023-04-27T13:53:28.131Z,9.13
2023-04-27T13:55:56.116Z,7.97
2023-04-27T13:58:25.792Z,6.62
2023-04-27T14:00:53.812Z,7.18
2023-04-27T14:03:21.727Z,8.27
2023-04-27T14:05:50.945Z,8.65
2023-04-27T14:08:18.298Z,8.10
2023-04-27T14:10:46.059Z,7.00
2023-04-27T14:13:13.258Z,9.20
2023-04-27T14:15:40.604Z,8.10
2023-04-27T14:18:08.745Z,6.40
2023-04-27T14:20:36.504Z,10.52
2023-04-27T14:23:05.255Z,9.88
2023-04-27T14:25:35.428Z,8.02
2023-04-27T14:28:10.825Z,8.43
2023-04-27T14:30:37.702Z,8.65
2023-04-27T14:33:07.104Z,7.37
2023-04-27T14:35:34.972Z,8.35
2023-04-27T14:38:33.888Z,8.73
2023-04-27T14:41:01.938Z,12.18
2023-04-27T14:43:28.876Z,7.97
2023-04-27T14:46:04.848Z,9.95
2023-04-27T14:48:54.439Z,6.97
2023-04-27T14:51:21.690Z,7.93
2023-04-27T14:53:48.617Z,8.02
2023-04-27T14:56:15.610Z,10.18
2023-04-27T14:58:42.474Z,7.87
2023-04-27T15:01:09.421Z,7.05
2023-04-27T15:03:36.520Z,8.55
2023-04-27T15:06:03.704Z,6.05
2023-04-27T15:08:32.076Z,11.10
2023-04-27T15:11:01.394Z,8.55
2023-04-27T15:13:28.370Z,12.15
2023-04-27T15:15:56.664Z,8.98
2023-04-27T15:18:25.873Z,7.37
2023-04-27T15:20:56.671Z,8.73
2023-04-27T15:23:24.782Z,7.47
2023-04-27T15:25:55.540Z,9.63
2023-04-27T15:28:33.961Z,6.75
2023-04-27T15:31:00.871Z,4.45
2023-04-27T15:33:27.747Z,6.45
2023-04-27T15:35:55.057Z,7.15
2023-04-27T15:38:28.219Z,7.47
2023-04-27T15:40:55.067Z,8.18
2023-04-27T15:43:22.079Z,6.70
2023-04-27T15:45:49.542Z,8.43
2023-04-27T15:48:16.663Z,6.43
2023-04-27T15:50:45.110Z,6.78
2023-04-27T15:53:12.191Z,10.70
2023-04-27T15:55:39.081Z,6.30
2023-04-27T15:58:06.056Z,7.03
2023-04-27T16:00:33.017Z,8.25
2023-04-27T16:03:00.656Z,7.45
2023-04-27T16:05:27.759Z,7.00
2023-04-27T16:07:55.612Z,5.28
2023-04-27T16:10:22.460Z,8.85
2023-04-27T16:12:49.328Z,6.05
2023-04-27T16:15:16.334Z,6.93
2023-04-27T16:17:43.196Z,6.62
2023-04-27T16:20:10.255Z,8.07
2023-04-27T16:22:37.774Z,7.45
2023-04-27T16:25:10.534Z,8.73
2023-04-27T16:27:38.554Z,8.40
2023-04-27T16:30:08.246Z,6.03
2023-04-27T16:32:35.646Z,6.32
2023-04-27T16:35:03.803Z,6.45
2023-04-27T16:37:30.767Z,7.10
2023-04-27T16:40:01.519Z,7.70
2023-04-27T16:42:28.778Z,9.30
2023-04-27T16:44:55.901Z,5.60
2023-04-27T16:47:22.976Z,5.35
2023-04-27T16:49:51.413Z,8.80
2023-04-27T16:52:18.856Z,7.28
2023-04-27T16:54:46.105Z,7.53
2023-04-27T16:57:13.429Z,6.72
2023-04-27T16:59:48.327Z,6.78
2023-04-27T17:02:24.558Z,6.68
2023-04-27T17:04:53.151Z,9.52
2023-04-27T17:07:20.188Z,8.63
2023-04-27T17:09:53.267Z,6.80
2023-04-27T17:12:20.179Z,8.18
2023-04-27T17:14:47.038Z,10.85
2023-04-27T17:17:13.926Z,4.90
2023-04-27T17:19:42.145Z,8.10
2023-04-27T17:22:11.453Z,8.57
2023-04-27T17:24:38.285Z,6.85
2023-04-27T17:27:05.195Z,5.45
2023-04-27T17:29:33.047Z,8.43
2023-04-27T17:31:59.907Z,7.15
2023-04-27T17:34:26.790Z,7.95
2023-04-27T17:36:53.727Z,6.65
2023-04-27T17:39:22.763Z,7.87
2023-04-27T17:41:49.688Z,7.87
2023-04-27T17:44:16.805Z,6.00
2023-04-27T17:46:48.053Z,9.20
2023-04-27T17:49:16.422Z,7.22
2023-04-27T17:51:44.286Z,5.35
2023-04-27T17:54:11.757Z,8.38
2023-04-27T17:56:39.447Z,7.28
2023-04-27T17:59:07.820Z,7.47
2023-04-27T18:01:34.892Z,5.03
2023-04-27T18:04:04.225Z,7.68
2023-04-27T18:06:32.177Z,5.95
2023-04-27T18:08:59.080Z,7.93
2023-04-27T18:11:26.032Z,7.75
2023-04-27T18:13:54.672Z,5.80
2023-04-27T18:16:21.796Z,7.90
2023-04-27T18:18:48.690Z,6.45
2023-04-27T18:21:15.556Z,6.37
2023-04-27T18:23:42.836Z,8.57
2023-04-27T18:26:11.539Z,6.53
2023-04-27T18:28:40.291Z,8.93
2023-04-27T18:31:17.710Z,10.05
2023-04-27T18:33:47.617Z,13.32
2023-04-27T18:36:14.583Z,14.75
2023-04-27T18:38:41.493Z,8.35
2023-04-27T18:41:08.497Z,8.02
2023-04-27T18:43:37.788Z,9.93
2023-04-27T18:46:05.051Z,9.23
2023-04-27T18:48:32.626Z,8.75
2023-04-27T18:50:59.585Z,9.10
2023-04-27T18:53:27.474Z,8.93
2023-04-27T18:55:54.380Z,8.70
2023-04-27T18:58:21.675Z,11.75
2023-04-27T19:00:48.638Z,8.95
2023-04-27T19:03:15.868Z,21.42
2023-04-27T19:05:43.195Z,33.67
2023-04-27T19:08:10.440Z,36.03
2023-04-27T19:10:38.399Z,49.72
2023-04-27T19:13:05.259Z,75.45
2023-04-27T19:15:32.127Z,87.15
2023-04-27T19:18:06.914Z,74.32
2023-04-27T19:20:37.439Z,51.17
2023-04-27T19:23:05.386Z,53.72
2023-04-27T19:25:32.334Z,52.45
2023-04-27T19:27:59.277Z,46.65
2023-04-27T19:30:26.285Z,41.30
2023-04-27T19:32:53.287Z,45.50
2023-04-27T19:35:20.602Z,40.90
2023-04-27T19:37:47.519Z,45.67
2023-04-27T19:40:15.091Z,40.90
2023-04-27T19:42:41.958Z,39.47
2023-04-27T19:45:08.973Z,39.38
2023-04-27T19:47:36.146Z,42.40
2023-04-27T19:50:04.952Z,41.60
2023-04-27T19:52:31.841Z,42.22
2023-04-27T19:55:00.070Z,37.30
2023-04-27T19:57:26.942Z,29.90
2023-04-27T19:59:53.831Z,28.42
2023-04-27T20:02:21.691Z,42.75
2023-04-27T20:04:48.986Z,34.05
2023-04-27T20:07:16.128Z,28.75
2023-04-27T20:09:43.066Z,24.55
2023-04-27T20:12:23.718Z,31.50
2023-04-27T20:14:56.329Z,30.05
2023-04-27T20:17:25.792Z,28.85
2023-04-27T20:19:56.613Z,32.47
2023-04-27T20:22:24.071Z,29.63
2023-04-27T20:24:51.229Z,31.83
2023-04-27T20:27:18.229Z,27.85
2023-04-27T20:29:47.274Z,28.10
2023-04-27T20:32:14.157Z,17.98
2023-04-27T20:34:41.075Z,17.87
2023-04-27T20:37:08.000Z,17.17
2023-04-27T20:39:35.211Z,13.45
2023-04-27T20:42:02.198Z,15.55
2023-04-27T20:44:29.079Z,12.13
2023-04-27T20:46:56.180Z,14.85
2023-04-27T20:49:32.014Z,12.25
2023-04-27T20:52:02.328Z,12.07
2023-04-27T20:54:32.898Z,14.02
2023-04-27T20:57:03.876Z,14.07
2023-04-27T20:59:30.741Z,11.43
2023-04-27T21:01:57.719Z,11.85
2023-04-27T21:04:24.660Z,10.50
2023-04-27T21:06:51.597Z,10.48
2023-04-27T21:11:45.178Z,11.10
2023-04-27T21:14:12.052Z,11.02
2023-04-27T21:16:38.944Z,15.75
2023-04-27T21:19:05.882Z,19.73
2023-04-27T21:21:32.755Z,16.50
2023-04-27T21:24:07.371Z,16.75
2023-04-27T21:26:46.277Z,26.80
2023-04-27T21:29:13.184Z,29.08
2023-04-27T21:31:40.176Z,43.05
2023-04-27T21:34:07.099Z,28.40
2023-04-27T21:36:34.093Z,25.35
2023-04-27T21:39:01.109Z,28.58
2023-04-27T21:41:27.964Z,32.50
2023-04-27T21:43:54.845Z,29.63
2023-04-27T21:46:23.418Z,23.80
2023-04-27T21:48:50.342Z,12.52
2023-04-27T21:51:17.264Z,11.60
2023-04-27T21:53:44.093Z,12.80
2023-04-27T21:58:37.871Z,11.73
2023-04-27T22:01:04.801Z,13.48
2023-04-27T22:03:32.807Z,12.60
2023-04-27T22:05:59.833Z,8.48
2023-04-27T22:08:26.748Z,13.25
2023-04-27T22:10:53.683Z,11.50
2023-04-27T22:13:20.622Z,11.68
2023-04-27T22:15:48.421Z,12.52
2023-04-27T22:18:15.792Z,10.23
2023-04-27T22:20:43.050Z,9.93
2023-04-27T22:23:10.220Z,8.90
2023-04-27T22:25:37.146Z,10.60
2023-04-27T22:28:04.154Z,9.65
2023-04-27T22:30:31.296Z,13.45
2023-04-27T22:32:58.320Z,10.18
2023-04-27T22:35:27.545Z,9.82
2023-04-27T22:37:58.171Z,12.02
2023-04-27T22:40:25.214Z,9.07
2023-04-27T22:42:53.586Z,12.88
2023-04-27T22:45:20.512Z,13.02
2023-04-27T22:47:47.508Z,10.77
2023-04-27T22:50:14.518Z,11.85
2023-04-27T22:52:44.691Z,9.48
2023-04-27T22:55:12.871Z,11.25
2023-04-27T22:57:40.446Z,8.40
2023-04-27T23:00:14.042Z,10.38
2023-04-27T23:02:41.760Z,11.07
2023-04-27T23:05:10.963Z,14.57
2023-04-27T23:07:38.521Z,9.93
2023-04-27T23:10:06.191Z,13.02
2023-04-27T23:12:33.712Z,11.25
2023-04-27T23:15:00.736Z,10.43
2023-04-27T23:17:31.170Z,10.95
2023-04-27T23:19:59.609Z,13.23
2023-04-27T23:22:27.253Z,11.38
2023-04-27T23:24:54.640Z,14.82
2023-04-27T23:27:22.666Z,11.80
2023-04-27T23:29:49.532Z,9.98
2023-04-27T23:34:43.113Z,11.10
2023-04-27T23:37:10.028Z,11.85
2023-04-27T23:39:36.861Z,13.70
2023-04-27T23:44:30.572Z,10.77
2023-04-27T23:46:57.621Z,12.57
2023-04-27T23:49:24.581Z,10.15
2023-04-27T23:51:52.800Z,9.65
2023-04-27T23:54:19.755Z,13.15
2023-04-27T23:56:47.334Z,12.10
2023-04-27T23:59:15.170Z,12.50
